sensor_id;sensor_type;location;lat;lon;timestamp;pressure;altitude;pressure_sealevel;temperature
63158;BMP280;49381;49.338;8.794;2022-11-10T00:01:17;100668.72;;;12.71
63158;BMP280;49381;49.338;8.794;2022-11-10T00:03:17;100672.97;;;12.72
63158;BMP280;49381;49.338;8.794;2022-11-10T00:05:18;100661.91;;;12.68
63158;BMP280;49381;49.338;8.794;2022-11-10T00:07:18;100667.81;;;12.67
63158;BMP280;49381;49.338;8.794;2022-11-10T00:09:18;100678.00;;;12.63
63158;BMP280;49381;49.338;8.794;2022-11-10T00:11:19;100678.00;;;12.60
63158;BMP280;49381;49.338;8.794;2022-11-10T00:13:19;100679.66;;;12.55
63158;BMP280;49381;49.338;8.794;2022-11-10T00:15:19;100689.00;;;12.53
63158;BMP280;49381;49.338;8.794;2022-11-10T00:17:21;100685.56;;;12.51
63158;BMP280;49381;49.338;8.794;2022-11-10T00:19:21;100685.56;;;12.50
63158;BMP280;49381;49.338;8.794;2022-11-10T00:21:22;100686.41;;;12.47
63158;BMP280;49381;49.338;8.794;2022-11-10T00:23:22;100686.44;;;12.50
63158;BMP280;49381;49.338;8.794;2022-11-10T00:25:23;100689.78;;;12.45
63158;BMP280;49381;49.338;8.794;2022-11-10T00:27:23;100687.22;;;12.39
63158;BMP280;49381;49.338;8.794;2022-11-10T00:29:23;100684.72;;;12.45
63158;BMP280;49381;49.338;8.794;2022-11-10T00:31:24;100688.06;;;12.39
63158;BMP280;49381;49.338;8.794;2022-11-10T00:33:25;100698.16;;;12.26
63158;BMP280;49381;49.338;8.794;2022-11-10T00:35:26;100690.44;;;12.05
63158;BMP280;49381;49.338;8.794;2022-11-10T00:37:26;100698.13;;;12.22
63158;BMP280;49381;49.338;8.794;2022-11-10T00:39:26;100692.25;;;12.24
63158;BMP280;49381;49.338;8.794;2022-11-10T00:41:27;100699.03;;;12.28
63158;BMP280;49381;49.338;8.794;2022-11-10T00:43:28;100704.09;;;12.25
63158;BMP280;49381;49.338;8.794;2022-11-10T00:45:28;100701.56;;;12.27
63158;BMP280;49381;49.338;8.794;2022-11-10T00:47:28;100700.72;;;12.29
63158;BMP280;49381;49.338;8.794;2022-11-10T00:49:30;100705.81;;;12.29
63158;BMP280;49381;49.338;8.794;2022-11-10T00:51:31;100704.03;;;12.13
63158;BMP280;49381;49.338;8.794;2022-11-10T00:53:31;100702.38;;;12.18
63158;BMP280;49381;49.338;8.794;2022-11-10T00:55:31;100706.59;;;12.13
63158;BMP280;49381;49.338;8.794;2022-11-10T00:57:32;100709.06;;;12.06
63158;BMP280;49381;49.338;8.794;2022-11-10T00:59:35;100709.06;;;12.06
63158;BMP280;49381;49.338;8.794;2022-11-10T01:01:36;100707.38;;;12.06
63158;BMP280;49381;49.338;8.794;2022-11-10T01:03:36;100719.25;;;12.09
63158;BMP280;49381;49.338;8.794;2022-11-10T01:05:38;100717.59;;;12.15
63158;BMP280;49381;49.338;8.794;2022-11-10T01:07:40;100726.06;;;12.17
63158;BMP280;49381;49.338;8.794;2022-11-10T01:09:41;100726.09;;;12.20
63158;BMP280;49381;49.338;8.794;2022-11-10T01:11:41;100741.34;;;12.19
63158;BMP280;49381;49.338;8.794;2022-11-10T01:13:42;100732.03;;;12.22
63158;BMP280;49381;49.338;8.794;2022-11-10T01:15:42;100733.75;;;12.25
63158;BMP280;49381;49.338;8.794;2022-11-10T01:17:43;100744.75;;;12.25
63158;BMP280;49381;49.338;8.794;2022-11-10T01:19:43;100752.38;;;12.25
63158;BMP280;49381;49.338;8.794;2022-11-10T01:21:50;100748.16;;;12.26
63158;BMP280;49381;49.338;8.794;2022-11-10T01:23:51;100755.78;;;12.27
63158;BMP280;49381;49.338;8.794;2022-11-10T01:25:51;100760.03;;;12.28
63158;BMP280;49381;49.338;8.794;2022-11-10T01:27:55;100758.34;;;12.30
63158;BMP280;49381;49.338;8.794;2022-11-10T01:29:55;100767.66;;;12.31
63158;BMP280;49381;49.338;8.794;2022-11-10T01:31:56;100779.53;;;12.32
63158;BMP280;49381;49.338;8.794;2022-11-10T01:33:57;100779.53;;;12.32
63158;BMP280;49381;49.338;8.794;2022-11-10T01:35:58;100784.59;;;12.29
63158;BMP280;49381;49.338;8.794;2022-11-10T01:37:59;100790.53;;;12.28
63158;BMP280;49381;49.338;8.794;2022-11-10T01:40:00;100787.16;;;12.29
63158;BMP280;49381;49.338;8.794;2022-11-10T01:42:00;100789.69;;;12.30
63158;BMP280;49381;49.338;8.794;2022-11-10T01:44:14;100795.63;;;12.28
63158;BMP280;49381;49.338;8.794;2022-11-10T01:46:15;100792.19;;;12.25
63158;BMP280;49381;49.338;8.794;2022-11-10T01:48:23;100787.09;;;12.20
63158;BMP280;49381;49.338;8.794;2022-11-10T01:50:29;100787.94;;;12.18
63158;BMP280;49381;49.338;8.794;2022-11-10T01:52:31;100782.81;;;12.15
63158;BMP280;49381;49.338;8.794;2022-11-10T01:54:38;100792.09;;;12.08
63158;BMP280;49381;49.338;8.794;2022-11-10T01:56:41;100790.38;;;12.05
63158;BMP280;49381;49.338;8.794;2022-11-10T01:58:47;100793.75;;;12.04
63158;BMP280;49381;49.338;8.794;2022-11-10T02:00:49;100790.31;;;12.00
63158;BMP280;49381;49.338;8.794;2022-11-10T02:02:53;100794.56;;;12.00
63158;BMP280;49381;49.338;8.794;2022-11-10T02:04:55;100799.56;;;11.92
63158;BMP280;49381;49.338;8.794;2022-11-10T02:06:55;100815.56;;;11.81
63158;BMP280;49381;49.338;8.794;2022-11-10T02:08:56;100815.59;;;11.84
63158;BMP280;49381;49.338;8.794;2022-11-10T02:10:58;100812.97;;;11.77
63158;BMP280;49381;49.338;8.794;2022-11-10T02:12:58;100818.09;;;11.80
63158;BMP280;49381;49.338;8.794;2022-11-10T02:14:59;100820.63;;;11.81
63158;BMP280;49381;49.338;8.794;2022-11-10T02:16:59;100822.31;;;11.79
63158;BMP280;49381;49.338;8.794;2022-11-10T02:19:12;100828.25;;;11.81
63158;BMP280;49381;49.338;8.794;2022-11-10T02:21:16;100828.91;;;11.62
63158;BMP280;49381;49.338;8.794;2022-11-10T02:23:42;100834.63;;;11.39
63158;BMP280;49381;49.338;8.794;2022-11-10T02:25:43;100837.06;;;11.35
63158;BMP280;49381;49.338;8.794;2022-11-10T02:27:43;100831.19;;;11.37
63158;BMP280;49381;49.338;8.794;2022-11-10T02:29:44;100833.78;;;11.39
63158;BMP280;49381;49.338;8.794;2022-11-10T02:31:44;100832.03;;;11.36
63158;BMP280;49381;49.338;8.794;2022-11-10T02:33:44;100839.75;;;11.44
63158;BMP280;49381;49.338;8.794;2022-11-10T02:35:45;100836.31;;;11.42
63158;BMP280;49381;49.338;8.794;2022-11-10T02:37:47;100840.66;;;11.50
63158;BMP280;49381;49.338;8.794;2022-11-10T02:39:47;100847.16;;;11.32
63158;BMP280;49381;49.338;8.794;2022-11-10T02:41:47;100843.03;;;11.37
63158;BMP280;49381;49.338;8.794;2022-11-10T02:43:48;100849.00;;;11.42
63158;BMP280;49381;49.338;8.794;2022-11-10T02:45:48;100852.44;;;11.45
63158;BMP280;49381;49.338;8.794;2022-11-10T02:47:48;100859.28;;;11.51
63158;BMP280;49381;49.338;8.794;2022-11-10T02:49:49;100852.50;;;11.53
63158;BMP280;49381;49.338;8.794;2022-11-10T02:51:49;100855.72;;;11.37
63158;BMP280;49381;49.338;8.794;2022-11-10T02:53:51;100867.41;;;11.26
63158;BMP280;49381;49.338;8.794;2022-11-10T02:55:51;100864.81;;;11.19
63158;BMP280;49381;49.338;8.794;2022-11-10T02:57:51;100856.31;;;11.17
63158;BMP280;49381;49.338;8.794;2022-11-10T02:59:52;100860.56;;;11.19
63158;BMP280;49381;49.338;8.794;2022-11-10T03:01:52;100859.75;;;11.22
63158;BMP280;49381;49.338;8.794;2022-11-10T03:03:52;100872.41;;;11.19
63158;BMP280;49381;49.338;8.794;2022-11-10T03:05:52;100872.44;;;11.22
63158;BMP280;49381;49.338;8.794;2022-11-10T03:07:53;100875.88;;;11.28
63158;BMP280;49381;49.338;8.794;2022-11-10T03:09:55;100876.78;;;11.30
63158;BMP280;49381;49.338;8.794;2022-11-10T03:11:55;100877.63;;;11.32
63158;BMP280;49381;49.338;8.794;2022-11-10T03:13:56;100880.97;;;11.28
63158;BMP280;49381;49.338;8.794;2022-11-10T03:15:56;100886.81;;;11.23
63158;BMP280;49381;49.338;8.794;2022-11-10T03:18:02;100886.84;;;11.24
63158;BMP280;49381;49.338;8.794;2022-11-10T03:20:03;100888.47;;;11.19
63158;BMP280;49381;49.338;8.794;2022-11-10T03:22:04;100888.50;;;11.22
63158;BMP280;49381;49.338;8.794;2022-11-10T03:24:04;100892.72;;;11.20
63158;BMP280;49381;49.338;8.794;2022-11-10T03:26:06;100890.19;;;11.19
63158;BMP280;49381;49.338;8.794;2022-11-10T03:28:07;100889.34;;;11.21
63158;BMP280;49381;49.338;8.794;2022-11-10T03:30:08;100888.38;;;11.13
63158;BMP280;49381;49.338;8.794;2022-11-10T03:32:09;100889.28;;;11.15
63158;BMP280;49381;49.338;8.794;2022-11-10T03:34:09;100889.28;;;11.14
63158;BMP280;49381;49.338;8.794;2022-11-10T03:36:10;100885.97;;;11.22
63158;BMP280;49381;49.338;8.794;2022-11-10T03:38:10;100892.78;;;11.25
63158;BMP280;49381;49.338;8.794;2022-11-10T03:40:11;100895.34;;;11.28
63158;BMP280;49381;49.338;8.794;2022-11-10T03:42:13;100896.13;;;11.22
63158;BMP280;49381;49.338;8.794;2022-11-10T03:44:13;100902.88;;;11.20
63158;BMP280;49381;49.338;8.794;2022-11-10T03:46:13;100906.25;;;11.21
63158;BMP280;49381;49.338;8.794;2022-11-10T03:48:14;100918.09;;;11.20
63158;BMP280;49381;49.338;8.794;2022-11-10T03:50:15;100919.84;;;11.24
63158;BMP280;49381;49.338;8.794;2022-11-10T03:52:15;100933.38;;;11.26
63158;BMP280;49381;49.338;8.794;2022-11-10T03:54:16;100940.22;;;11.30
63158;BMP280;49381;49.338;8.794;2022-11-10T03:56:16;100937.56;;;11.23
63158;BMP280;49381;49.338;8.794;2022-11-10T03:58:18;100935.75;;;11.13
63158;BMP280;49381;49.338;8.794;2022-11-10T04:00:18;100936.50;;;11.04
63158;BMP280;49381;49.338;8.794;2022-11-10T04:02:19;100940.66;;;11.01
63158;BMP280;49381;49.338;8.794;2022-11-10T04:04:19;100941.44;;;10.96
63158;BMP280;49381;49.338;8.794;2022-11-10T04:06:19;100943.09;;;10.94
63158;BMP280;49381;49.338;8.794;2022-11-10T04:08:19;100942.25;;;10.95
63158;BMP280;49381;49.338;8.794;2022-11-10T04:10:20;100955.53;;;10.78
63158;BMP280;49381;49.338;8.794;2022-11-10T04:12:20;100962.13;;;10.68
63158;BMP280;49381;49.338;8.794;2022-11-10T04:14:22;100970.63;;;10.70
63158;BMP280;49381;49.338;8.794;2022-11-10T04:16:22;100966.25;;;10.60
63158;BMP280;49381;49.338;8.794;2022-11-10T04:18:22;100967.00;;;10.55
63158;BMP280;49381;49.338;8.794;2022-11-10T04:20:23;100975.47;;;10.55
63158;BMP280;49381;49.338;8.794;2022-11-10T04:22:23;100978.06;;;10.60
63158;BMP280;49381;49.338;8.794;2022-11-10T04:24:24;100976.31;;;10.57
63158;BMP280;49381;49.338;8.794;2022-11-10T04:26:24;100984.81;;;10.59
63158;BMP280;49381;49.338;8.794;2022-11-10T04:28:24;100978.94;;;10.62
63158;BMP280;49381;49.338;8.794;2022-11-10T04:30:26;100983.91;;;10.56
63158;BMP280;49381;49.338;8.794;2022-11-10T04:32:26;100984.75;;;10.55
63158;BMP280;49381;49.338;8.794;2022-11-10T04:34:27;100986.44;;;10.56
63158;BMP280;49381;49.338;8.794;2022-11-10T04:36:29;100986.53;;;10.60
63158;BMP280;49381;49.338;8.794;2022-11-10T04:38:29;100990.81;;;10.64
63158;BMP280;49381;49.338;8.794;2022-11-10T04:40:30;100988.22;;;10.61
63158;BMP280;49381;49.338;8.794;2022-11-10T04:42:30;100998.13;;;10.47
63158;BMP280;49381;49.338;8.794;2022-11-10T04:44:30;101001.41;;;10.43
63158;BMP280;49381;49.338;8.794;2022-11-10T04:46:33;101005.63;;;10.41
63158;BMP280;49381;49.338;8.794;2022-11-10T04:48:34;101015.78;;;10.44
63158;BMP280;49381;49.338;8.794;2022-11-10T04:50:35;101021.78;;;10.47
63158;BMP280;49381;49.338;8.794;2022-11-10T04:52:35;101013.41;;;10.53
63158;BMP280;49381;49.338;8.794;2022-11-10T04:54:35;101016.72;;;10.49
63158;BMP280;49381;49.338;8.794;2022-11-10T04:56:36;101016.72;;;10.47
63158;BMP280;49381;49.338;8.794;2022-11-10T04:58:36;101013.31;;;10.47
63158;BMP280;49381;49.338;8.794;2022-11-10T05:00:37;101020.94;;;10.48
63158;BMP280;49381;49.338;8.794;2022-11-10T05:02:39;101022.72;;;10.53
63158;BMP280;49381;49.338;8.794;2022-11-10T05:04:39;101026.16;;;10.54
63158;BMP280;49381;49.338;8.794;2022-11-10T05:06:40;101026.09;;;10.53
63158;BMP280;49381;49.338;8.794;2022-11-10T05:08:41;101024.31;;;10.49
63158;BMP280;49381;49.338;8.794;2022-11-10T05:10:42;101027.66;;;10.45
63158;BMP280;49381;49.338;8.794;2022-11-10T05:12:42;101030.22;;;10.48
63158;BMP280;49381;49.338;8.794;2022-11-10T05:14:43;101024.28;;;10.46
63158;BMP280;49381;49.338;8.794;2022-11-10T05:16:43;101023.28;;;10.36
63158;BMP280;49381;49.338;8.794;2022-11-10T05:18:45;101019.81;;;10.33
63158;BMP280;49381;49.338;8.794;2022-11-10T05:20:45;101020.63;;;10.30
63158;BMP280;49381;49.338;8.794;2022-11-10T05:22:46;101021.28;;;10.19
63158;BMP280;49381;49.338;8.794;2022-11-10T05:24:47;101019.44;;;10.12
63158;BMP280;49381;49.338;8.794;2022-11-10T05:26:47;101027.81;;;10.08
63158;BMP280;49381;49.338;8.794;2022-11-10T05:28:47;101032.06;;;10.09
63158;BMP280;49381;49.338;8.794;2022-11-10T05:30:48;101036.31;;;10.10
63158;BMP280;49381;49.338;8.794;2022-11-10T05:32:48;101044.88;;;10.17
63158;BMP280;49381;49.338;8.794;2022-11-10T05:34:50;101043.28;;;10.22
63158;BMP280;49381;49.338;8.794;2022-11-10T05:36:50;101038.03;;;10.13
63158;BMP280;49381;49.338;8.794;2022-11-10T05:38:50;101048.97;;;10.10
63158;BMP280;49381;49.338;8.794;2022-11-10T05:40:51;101042.22;;;10.11
63158;BMP280;49381;49.338;8.794;2022-11-10T05:42:51;101057.41;;;10.09
63158;BMP280;49381;49.338;8.794;2022-11-10T05:44:52;101064.13;;;10.09
63158;BMP280;49381;49.338;8.794;2022-11-10T05:46:52;101070.09;;;10.11
63158;BMP280;49381;49.338;8.794;2022-11-10T05:48:52;101068.47;;;10.14
63158;BMP280;49381;49.338;8.794;2022-11-10T05:50:54;101083.50;;;10.07
63158;BMP280;49381;49.338;8.794;2022-11-10T05:52:54;101076.63;;;10.00
63158;BMP280;49381;49.338;8.794;2022-11-10T05:54:55;101077.47;;;9.99
63158;BMP280;49381;49.338;8.794;2022-11-10T05:56:55;101079.16;;;10.00
63158;BMP280;49381;49.338;8.794;2022-11-10T05:58:56;101084.16;;;9.97
63158;BMP280;49381;49.338;8.794;2022-11-10T06:00:56;101085.09;;;10.02
63158;BMP280;49381;49.338;8.794;2022-11-10T06:02:58;101092.69;;;10.02
63158;BMP280;49381;49.338;8.794;2022-11-10T06:04:59;101097.72;;;9.99
63158;BMP280;49381;49.338;8.794;2022-11-10T06:07:00;101107.03;;;10.02
63158;BMP280;49381;49.338;8.794;2022-11-10T06:09:00;101111.16;;;9.97
63158;BMP280;49381;49.338;8.794;2022-11-10T06:11:01;101106.94;;;9.97
63158;BMP280;49381;49.338;8.794;2022-11-10T06:13:02;101120.34;;;9.92
63158;BMP280;49381;49.338;8.794;2022-11-10T06:15:03;101122.00;;;9.90
63158;BMP280;49381;49.338;8.794;2022-11-10T06:17:04;101131.19;;;9.86
63158;BMP280;49381;49.338;8.794;2022-11-10T06:19:04;101131.09;;;9.83
63158;BMP280;49381;49.338;8.794;2022-11-10T06:21:05;101142.06;;;9.84
63158;BMP280;49381;49.338;8.794;2022-11-10T06:23:09;101152.19;;;9.84
63158;BMP280;49381;49.338;8.794;2022-11-10T06:25:10;101157.25;;;9.84
63158;BMP280;49381;49.338;8.794;2022-11-10T06:27:11;101169.25;;;9.89
63158;BMP280;49381;49.338;8.794;2022-11-10T06:29:11;101163.28;;;9.87
63158;BMP280;49381;49.338;8.794;2022-11-10T06:31:11;101163.25;;;9.84
63158;BMP280;49381;49.338;8.794;2022-11-10T06:33:12;101171.72;;;9.86
63158;BMP280;49381;49.338;8.794;2022-11-10T06:35:12;101171.72;;;9.86
63158;BMP280;49381;49.338;8.794;2022-11-10T06:37:12;101179.34;;;9.88
63158;BMP280;49381;49.338;8.794;2022-11-10T06:39:14;101181.81;;;9.85
63158;BMP280;49381;49.338;8.794;2022-11-10T06:41:14;101193.41;;;9.77
63158;BMP280;49381;49.338;8.794;2022-11-10T06:43:15;101191.63;;;9.73
63158;BMP280;49381;49.338;8.794;2022-11-10T06:45:15;101192.44;;;9.72
63158;BMP280;49381;49.338;8.794;2022-11-10T06:47:16;101190.78;;;9.74
63158;BMP280;49381;49.338;8.794;2022-11-10T06:49:17;101197.44;;;9.69
63158;BMP280;49381;49.338;8.794;2022-11-10T06:51:17;101210.75;;;9.61
63158;BMP280;49381;49.338;8.794;2022-11-10T06:53:18;101220.91;;;9.62
63158;BMP280;49381;49.338;8.794;2022-11-10T06:55:19;101215.09;;;9.66
63158;BMP280;49381;49.338;8.794;2022-11-10T06:57:20;101232.72;;;9.63
63158;BMP280;49381;49.338;8.794;2022-11-10T06:59:20;101232.81;;;9.66
63158;BMP280;49381;49.338;8.794;2022-11-10T07:01:20;101242.84;;;9.63
63158;BMP280;49381;49.338;8.794;2022-11-10T07:03:21;101243.06;;;9.71
63158;BMP280;49381;49.338;8.794;2022-11-10T07:05:21;101247.41;;;9.76
63158;BMP280;49381;49.338;8.794;2022-11-10T07:07:21;101239.84;;;9.79
63158;BMP280;49381;49.338;8.794;2022-11-10T07:09:22;101242.38;;;9.79
63158;BMP280;49381;49.338;8.794;2022-11-10T07:11:24;101245.69;;;9.75
63158;BMP280;49381;49.338;8.794;2022-11-10T07:13:24;101258.03;;;9.63
63158;BMP280;49381;49.338;8.794;2022-11-10T07:15:24;101263.91;;;9.61
63158;BMP280;49381;49.338;8.794;2022-11-10T07:17:25;101272.06;;;9.50
63158;BMP280;49381;49.338;8.794;2022-11-10T07:19:25;101274.75;;;9.55
63158;BMP280;49381;49.338;8.794;2022-11-10T07:21:25;101287.28;;;9.51
63158;BMP280;49381;49.338;8.794;2022-11-10T07:23:26;101288.91;;;9.49
63158;BMP280;49381;49.338;8.794;2022-11-10T07:25:27;101295.63;;;9.49
63158;BMP280;49381;49.338;8.794;2022-11-10T07:27:29;101285.72;;;9.56
63158;BMP280;49381;49.338;8.794;2022-11-10T07:29:29;101296.78;;;9.59
63158;BMP280;49381;49.338;8.794;2022-11-10T07:31:30;101284.91;;;9.58
63158;BMP280;49381;49.338;8.794;2022-11-10T07:33:30;101289.19;;;9.59
63158;BMP280;49381;49.338;8.794;2022-11-10T07:35:32;101289.25;;;9.62
63158;BMP280;49381;49.338;8.794;2022-11-10T07:37:33;101295.25;;;9.66
63158;BMP280;49381;49.338;8.794;2022-11-10T07:39:33;101290.34;;;9.73
63158;BMP280;49381;49.338;8.794;2022-11-10T07:41:33;101302.19;;;9.74
63158;BMP280;49381;49.338;8.794;2022-11-10T07:43:35;101293.13;;;9.82
63158;BMP280;49381;49.338;8.794;2022-11-10T07:45:35;101298.91;;;9.78
63158;BMP280;49381;49.338;8.794;2022-11-10T07:47:36;101298.88;;;9.77
63158;BMP280;49381;49.338;8.794;2022-11-10T07:49:36;101305.69;;;9.79
63158;BMP280;49381;49.338;8.794;2022-11-10T07:51:36;101302.41;;;9.83
63158;BMP280;49381;49.338;8.794;2022-11-10T07:53:37;101299.88;;;9.83
63158;BMP280;49381;49.338;8.794;2022-11-10T07:55:38;101304.13;;;9.84
63158;BMP280;49381;49.338;8.794;2022-11-10T07:57:39;101311.03;;;9.88
63158;BMP280;49381;49.338;8.794;2022-11-10T07:59:40;101313.50;;;9.85
63158;BMP280;49381;49.338;8.794;2022-11-10T08:01:41;101315.19;;;9.86
63158;BMP280;49381;49.338;8.794;2022-11-10T08:03:41;101322.81;;;9.87
63158;BMP280;49381;49.338;8.794;2022-11-10T08:05:42;101332.34;;;9.97
63158;BMP280;49381;49.338;8.794;2022-11-10T08:07:42;101328.34;;;10.05
63158;BMP280;49381;49.338;8.794;2022-11-10T08:09:43;101330.91;;;10.06
63158;BMP280;49381;49.338;8.794;2022-11-10T08:11:43;101333.53;;;10.11
63158;BMP280;49381;49.338;8.794;2022-11-10T08:13:44;101331.13;;;10.15
63158;BMP280;49381;49.338;8.794;2022-11-10T08:15:45;101335.44;;;10.19
63158;BMP280;49381;49.338;8.794;2022-11-10T08:17:46;101342.34;;;10.26
63158;BMP280;49381;49.338;8.794;2022-11-10T08:19:46;101336.56;;;10.31
63158;BMP280;49381;49.338;8.794;2022-11-10T08:21:46;101333.25;;;10.34
63158;BMP280;49381;49.338;8.794;2022-11-10T08:23:47;101335.84;;;10.37
63158;BMP280;49381;49.338;8.794;2022-11-10T08:25:47;101341.84;;;10.40
63158;BMP280;49381;49.338;8.794;2022-11-10T08:27:47;101349.47;;;10.42
63158;BMP280;49381;49.338;8.794;2022-11-10T08:29:48;101342.84;;;10.47
63158;BMP280;49381;49.338;8.794;2022-11-10T08:31:49;101350.66;;;10.57
63158;BMP280;49381;49.338;8.794;2022-11-10T08:33:50;101350.75;;;10.60
63158;BMP280;49381;49.338;8.794;2022-11-10T08:35:51;101343.25;;;10.64
63158;BMP280;49381;49.338;8.794;2022-11-10T08:37:51;101351.81;;;10.69
63158;BMP280;49381;49.338;8.794;2022-11-10T08:39:52;101347.63;;;10.73
63158;BMP280;49381;49.338;8.794;2022-11-10T08:41:52;101357.91;;;10.78
63158;BMP280;49381;49.338;8.794;2022-11-10T08:43:52;101349.59;;;10.84
63158;BMP280;49381;49.338;8.794;2022-11-10T08:45:56;101352.28;;;10.93
63158;BMP280;49381;49.338;8.794;2022-11-10T08:48:09;101360.91;;;10.99
63158;BMP280;49381;49.338;8.794;2022-11-10T08:50:15;101354.19;;;11.03
63158;BMP280;49381;49.338;8.794;2022-11-10T08:52:20;101357.75;;;11.10
63158;BMP280;49381;49.338;8.794;2022-11-10T08:54:25;101368.88;;;11.18
63158;BMP280;49381;49.338;8.794;2022-11-10T08:56:29;101371.53;;;11.23
63158;BMP280;49381;49.338;8.794;2022-11-10T08:58:29;101368.25;;;11.28
63158;BMP280;49381;49.338;8.794;2022-11-10T09:06:02;101371.09;;;11.43
63158;BMP280;49381;49.338;8.794;2022-11-10T09:08:10;101387.03;;;11.36
63158;BMP280;49381;49.338;8.794;2022-11-10T09:10:14;101384.72;;;11.46
63158;BMP280;49381;49.338;8.794;2022-11-10T09:12:21;101387.47;;;11.56
63158;BMP280;49381;49.338;8.794;2022-11-10T09:14:23;101386.75;;;11.63
63158;BMP280;49381;49.338;8.794;2022-11-10T09:16:28;101382.63;;;11.68
63158;BMP280;49381;49.338;8.794;2022-11-10T09:18:35;101393.75;;;11.76
63158;BMP280;49381;49.338;8.794;2022-11-10T09:20:41;101389.63;;;11.81
63158;BMP280;49381;49.338;8.794;2022-11-10T09:22:43;101393.06;;;11.83
63158;BMP280;49381;49.338;8.794;2022-11-10T09:24:44;101390.38;;;11.76
63158;BMP280;49381;49.338;8.794;2022-11-10T09:26:47;101393.09;;;11.87
63158;BMP280;49381;49.338;8.794;2022-11-10T09:28:50;101396.63;;;11.94
63158;BMP280;49381;49.338;8.794;2022-11-10T09:30:58;101400.06;;;11.97
63158;BMP280;49381;49.338;8.794;2022-11-10T09:33:13;101407.53;;;11.88
63158;BMP280;49381;49.338;8.794;2022-11-10T09:35:15;101410.38;;;12.05
63158;BMP280;49381;49.338;8.794;2022-11-10T09:37:16;101405.28;;;12.05
63158;BMP280;49381;49.338;8.794;2022-11-10T09:39:20;101414.69;;;12.10
63158;BMP280;49381;49.338;8.794;2022-11-10T09:41:27;101422.50;;;12.22
63158;BMP280;49381;49.338;8.794;2022-11-10T09:43:36;101423.38;;;12.22
63158;BMP280;49381;49.338;8.794;2022-11-10T09:45:44;101428.59;;;12.30
63158;BMP280;49381;49.338;8.794;2022-11-10T09:47:56;101433.59;;;12.24
63158;BMP280;49381;49.338;8.794;2022-11-10T09:50:01;101439.53;;;12.27
63158;BMP280;49381;49.338;8.794;2022-11-10T09:52:14;101437.94;;;12.32
63158;BMP280;49381;49.338;8.794;2022-11-10T09:54:27;101434.69;;;12.39
63158;BMP280;49381;49.338;8.794;2022-11-10T09:56:36;101437.31;;;12.45
63158;BMP280;49381;49.338;8.794;2022-11-10T09:58:40;101436.56;;;12.52
63158;BMP280;49381;49.338;8.794;2022-11-10T10:00:45;101429.06;;;12.59
63158;BMP280;49381;49.338;8.794;2022-11-10T10:02:55;101435.09;;;12.65
63158;BMP280;49381;49.338;8.794;2022-11-10T10:05:10;101433.47;;;12.70
63158;BMP280;49381;49.338;8.794;2022-11-10T10:07:24;101430.19;;;12.74
63158;BMP280;49381;49.338;8.794;2022-11-10T10:09:39;101429.41;;;12.78
63158;BMP280;49381;49.338;8.794;2022-11-10T10:11:56;101431.13;;;12.81
63158;BMP280;49381;49.338;8.794;2022-11-10T10:14:10;101430.28;;;12.81
63158;BMP280;49381;49.338;8.794;2022-11-10T10:16:24;101434.56;;;12.82
63158;BMP280;49381;49.338;8.794;2022-11-10T10:18:41;101433.56;;;12.75
63158;BMP280;49381;49.338;8.794;2022-11-10T10:20:48;101435.41;;;12.83
63158;BMP280;49381;49.338;8.794;2022-11-10T10:23:04;101430.41;;;12.89
63158;BMP280;49381;49.338;8.794;2022-11-10T10:25:12;101432.09;;;12.88
63158;BMP280;49381;49.338;8.794;2022-11-10T10:27:19;101422.00;;;12.97
63158;BMP280;49381;49.338;8.794;2022-11-10T10:29:22;101425.47;;;13.01
63158;BMP280;49381;49.338;8.794;2022-11-10T10:31:29;101430.59;;;13.04
63158;BMP280;49381;49.338;8.794;2022-11-10T10:33:34;101436.41;;;12.94
63158;BMP280;49381;49.338;8.794;2022-11-10T10:35:40;101434.84;;;13.05
63158;BMP280;49381;49.338;8.794;2022-11-10T10:37:44;101442.56;;;13.09
63158;BMP280;49381;49.338;8.794;2022-11-10T10:39:49;101442.63;;;13.13
63158;BMP280;49381;49.338;8.794;2022-11-10T10:42:00;101435.78;;;13.09
63158;BMP280;49381;49.338;8.794;2022-11-10T10:44:12;101432.47;;;13.16
63158;BMP280;49381;49.338;8.794;2022-11-10T10:46:13;101427.47;;;13.22
63158;BMP280;49381;49.338;8.794;2022-11-10T10:48:26;101424.03;;;13.20
63158;BMP280;49381;49.338;8.794;2022-11-10T10:50:29;101423.25;;;13.27
63158;BMP280;49381;49.338;8.794;2022-11-10T10:52:32;101420.72;;;13.27
63158;BMP280;49381;49.338;8.794;2022-11-10T10:54:34;101417.44;;;13.35
63158;BMP280;49381;49.338;8.794;2022-11-10T10:56:45;101422.53;;;13.37
63158;BMP280;49381;49.338;8.794;2022-11-10T10:58:53;101425.78;;;13.23
63158;BMP280;49381;49.338;8.794;2022-11-10T11:03:23;101426.88;;;13.42
63158;BMP280;49381;49.338;8.794;2022-11-10T11:05:24;101419.25;;;13.47
63158;BMP280;49381;49.338;8.794;2022-11-10T11:07:26;101420.16;;;13.50
63158;BMP280;49381;49.338;8.794;2022-11-10T11:09:29;101423.59;;;13.52
63158;BMP280;49381;49.338;8.794;2022-11-10T11:11:35;101423.50;;;13.46
63158;BMP280;49381;49.338;8.794;2022-11-10T11:13:39;101424.16;;;13.29
63158;BMP280;49381;49.338;8.794;2022-11-10T11:15:55;101434.25;;;13.23
63158;BMP280;49381;49.338;8.794;2022-11-10T11:17:59;101429.44;;;13.44
63158;BMP280;49381;49.338;8.794;2022-11-10T11:20:00;101428.41;;;13.31
63158;BMP280;49381;49.338;8.794;2022-11-10T11:22:37;101419.13;;;13.36
63158;BMP280;49381;49.338;8.794;2022-11-10T11:24:44;101425.91;;;13.36
63158;BMP280;49381;49.338;8.794;2022-11-10T11:26:55;101428.63;;;13.48
63158;BMP280;49381;49.338;8.794;2022-11-10T11:29:13;101427.00;;;13.53
63158;BMP280;49381;49.338;8.794;2022-11-10T11:31:35;101427.78;;;13.49
63158;BMP280;49381;49.338;8.794;2022-11-10T11:33:44;101427.78;;;13.49
63158;BMP280;49381;49.338;8.794;2022-11-10T11:36:11;101420.31;;;13.62
63158;BMP280;49381;49.338;8.794;2022-11-10T11:38:14;101423.78;;;13.70
63158;BMP280;49381;49.338;8.794;2022-11-10T11:40:25;101421.19;;;13.65
63158;BMP280;49381;49.338;8.794;2022-11-10T11:42:37;101432.28;;;13.72
63158;BMP280;49381;49.338;8.794;2022-11-10T11:44:58;101421.34;;;13.80
63158;BMP280;49381;49.338;8.794;2022-11-10T11:47:13;101419.56;;;13.73